Time;durP1;ratioP1;P1;durP2;ratioP2;P2;SDS_P1;SDS_P2;PMS_P1;PMS_P2;Temp;Humidity;BMP_temperature;BMP_pressure;BME280_temperature;BME280_humidity;BME280_pressure;Samples;Min_cycle;Max_cycle;Signal;HPM_P1;HPM_P2
2022/12/12 00:00:12;;;;;;;;;;;21.40;93.60;;;;;;5092687;28;20302;-64
2022/12/12 00:02:39;;;;;;;;;;;21.20;93.90;;;;;;5092951;28;19931;-64
2022/12/12 00:05:06;;;;;;;;;;;21.10;94.50;;;;;;5074671;28;19915;-65
2022/12/12 00:07:33;;;;;;;;;;;21.10;95.20;;;;;;5092515;28;20002;-65
2022/12/12 00:10:00;;;;;;;;;;;21.20;95.40;;;;;;5092553;28;19934;-65
2022/12/12 00:12:27;;;;;;;;;;;21.20;95.90;;;;;;5092973;28;19908;-65
2022/12/12 00:14:54;;;;;;;;;;;21.30;95.90;;;;;;5074832;28;19912;-65
2022/12/12 00:17:20;;;;;;;;;;;21.30;96.20;;;;;;5092365;28;19924;-66
2022/12/12 00:19:47;;;;;;;;;;;21.30;96.10;;;;;;5092649;28;20313;-65
2022/12/12 00:22:13;;;;;;;;;;;21.40;96.40;;;;;;5074804;28;20007;-65
2022/12/12 00:24:40;;;;;;;;;;;21.50;96.50;;;;;;5092397;28;19934;-65
2022/12/12 00:27:07;;;;;;;;;;;21.30;96.20;;;;;;5092931;28;19918;-66
2022/12/12 00:29:33;;;;;;;;;;;21.30;96.20;;;;;;5074577;28;19919;-66
2022/12/12 00:32:00;;;;;;;;;;;21.30;96.40;;;;;;5092271;28;20395;-66
2022/12/12 00:34:26;;;;;;;;;;;21.40;96.70;;;;;;5092612;28;19908;-66
2022/12/12 00:36:53;;;;;;;;;;;21.50;96.70;;;;;;5092540;28;19912;-66
2022/12/12 00:39:21;;;;;;;;;;;21.50;96.70;;;;;;5092778;28;19908;-66
2022/12/12 00:41:48;;;;;;;;;;;21.50;96.80;;;;;;5092297;28;19970;-67
2022/12/12 00:44:15;;;;;;;;;;;21.50;96.70;;;;;;5092483;28;19908;-67
2022/12/12 00:46:42;;;;;;;;;;;21.40;96.60;;;;;;5092273;28;19912;-67
2022/12/12 00:49:08;;;;;;;;;;;21.30;96.50;;;;;;5092312;28;19916;-66
2022/12/12 00:51:35;;;;;;;;;;;21.30;96.60;;;;;;5092140;28;19955;-67
2022/12/12 00:54:01;;;;;;;;;;;21.10;96.50;;;;;;5092333;28;19911;-67
2022/12/12 00:56:28;;;;;;;;;;;21.10;96.70;;;;;;5092093;28;19990;-67
2022/12/12 00:58:55;;;;;;;;;;;21.10;96.70;;;;;;5074052;28;19951;-67
2022/12/12 01:01:23;;;;;;;;;;;21.10;96.70;;;;;;5074340;28;19916;-67
2022/12/12 01:03:49;;;;;;;;;;;21.10;96.90;;;;;;5091944;28;20329;-67
2022/12/12 01:06:16;;;;;;;;;;;21.10;96.80;;;;;;5091923;28;20041;-67
2022/12/12 01:08:43;;;;;;;;;;;21.00;96.80;;;;;;5091717;28;19947;-67
2022/12/12 01:11:09;;;;;;;;;;;21.10;96.90;;;;;;5074381;28;19908;-67
2022/12/12 01:13:36;;;;;;;;;;;21.10;96.90;;;;;;5074120;28;19912;-67
2022/12/12 01:16:03;;;;;;;;;;;21.10;96.90;;;;;;5092139;28;20002;-67
2022/12/12 01:18:30;;;;;;;;;;;21.10;97.00;;;;;;5074295;28;19962;-67
2022/12/12 01:20:56;;;;;;;;;;;21.20;97.10;;;;;;5094997;28;19908;-67
2022/12/12 01:23:23;;;;;;;;;;;21.30;97.20;;;;;;5096424;28;19940;-67
2022/12/12 01:25:51;;;;;;;;;;;21.20;97.00;;;;;;5096119;28;20480;-67
2022/12/12 01:28:17;;;;;;;;;;;21.20;97.10;;;;;;5077823;28;19915;-67
2022/12/12 01:30:44;;;;;;;;;;;21.20;97.10;;;;;;5077927;28;20294;-67
2022/12/12 01:33:10;;;;;;;;;;;21.30;97.20;;;;;;5095600;28;19909;-67
2022/12/12 01:35:37;;;;;;;;;;;21.40;97.30;;;;;;5095718;28;19912;-67
2022/12/12 01:38:04;;;;;;;;;;;21.60;97.50;;;;;;5077534;28;19916;-67
2022/12/12 01:40:30;;;;;;;;;;;21.70;97.50;;;;;;5095979;28;19995;-67
2022/12/12 01:42:58;;;;;;;;;;;21.70;97.40;;;;;;5078120;28;20448;-67
2022/12/12 01:45:43;;;;;;;;;;;21.70;97.30;;;;;;5077698;28;19908;-67
2022/12/12 01:48:09;;;;;;;;;;;21.60;97.30;;;;;;5095518;28;20370;-67
2022/12/12 01:50:36;;;;;;;;;;;21.70;97.40;;;;;;5095842;28;19908;-67
2022/12/12 01:53:02;;;;;;;;;;;21.70;97.30;;;;;;5095787;28;19912;-67
2022/12/12 01:55:29;;;;;;;;;;;21.50;97.20;;;;;;5077396;28;19917;-67
2022/12/12 01:57:55;;;;;;;;;;;21.60;97.20;;;;;;5095389;28;19920;-67
2022/12/12 02:00:22;;;;;;;;;;;21.70;97.40;;;;;;5095147;28;19919;-66
2022/12/12 02:02:49;;;;;;;;;;;21.80;97.50;;;;;;5095343;28;19912;-67
2022/12/12 02:05:36;;;;;;;;;;;22.00;97.40;;;;;;5077146;28;19919;-66
2022/12/12 02:08:03;;;;;;;;;;;21.80;97.20;;;;;;5095448;28;20428;-67
2022/12/12 02:10:29;;;;;;;;;;;21.80;97.40;;;;;;5076932;28;19924;-66
2022/12/12 02:12:59;;;;;;;;;;;21.90;97.40;;;;;;5095533;28;20384;-66
2022/12/12 02:15:26;;;;;;;;;;;21.90;97.30;;;;;;5077057;28;19999;-67
2022/12/12 02:17:54;;;;;;;;;;;22.00;97.50;;;;;;5095038;28;19942;-66
2022/12/12 02:20:39;;;;;;;;;;;22.00;97.40;;;;;;5077004;28;20369;-66
2022/12/12 02:23:24;;;;;;;;;;;22.00;97.30;;;;;;5095002;28;19916;-66
2022/12/12 02:25:59;;;;;;;;;;;22.10;97.40;;;;;;5094911;28;19912;-66
2022/12/12 02:28:30;;;;;;;;;;;21.90;97.00;;;;;;5077064;28;19908;-66
2022/12/12 02:30:59;;;;;;;;;;;21.80;97.00;;;;;;5076185;28;19908;-66
2022/12/12 02:33:29;;;;;;;;;;;22.00;97.20;;;;;;5094781;28;19944;-66
2022/12/12 02:36:01;;;;;;;;;;;22.10;97.20;;;;;;5076976;28;19969;-66
2022/12/12 02:38:33;;;;;;;;;;;22.20;97.10;;;;;;5094793;28;20003;-66
2022/12/12 02:41:13;;;;;;;;;;;22.30;97.30;;;;;;5060146;28;19915;-66
2022/12/12 02:43:58;;;;;;;;;;;22.50;97.40;;;;;;5076734;28;19915;-67
2022/12/12 02:46:32;;;;;;;;;;;22.30;96.90;;;;;;5091727;28;19943;-67
2022/12/12 02:49:08;;;;;;;;;;;22.30;96.90;;;;;;5076443;28;19967;-67
2022/12/12 02:51:35;;;;;;;;;;;22.30;96.90;;;;;;5093930;28;19986;-67
2022/12/12 02:54:03;;;;;;;;;;;22.40;96.90;;;;;;5069573;28;20227;-66
2022/12/12 02:56:43;;;;;;;;;;;22.40;96.70;;;;;;5056446;28;19999;-67
2022/12/12 02:59:12;;;;;;;;;;;22.50;96.70;;;;;;5068737;28;20362;-67
2022/12/12 03:01:50;;;;;;;;;;;22.60;96.70;;;;;;5094637;28;19963;-66
2022/12/12 03:10:15;;;;;;;;;;;22.30;95.60;;;;;;5078637;28;19918;-67
2022/12/12 03:12:51;;;;;;;;;;;22.30;95.80;;;;;;5093925;28;19915;-67
2022/12/12 03:15:17;;;;;;;;;;;22.40;95.80;;;;;;5094153;28;19915;-67
2022/12/12 03:17:47;;;;;;;;;;;22.50;95.50;;;;;;5093891;28;19923;-66
2022/12/12 03:20:19;;;;;;;;;;;22.50;95.50;;;;;;5076124;28;19912;-66
2022/12/12 03:23:06;;;;;;;;;;;22.50;95.00;;;;;;5093778;28;19908;-67
2022/12/12 03:25:34;;;;;;;;;;;22.50;94.50;;;;;;5093807;28;19912;-67
2022/12/12 03:28:02;;;;;;;;;;;22.80;95.10;;;;;;5075873;28;19916;-66
2022/12/12 03:30:29;;;;;;;;;;;22.60;91.10;;;;;;5093518;28;20015;-66
2022/12/12 03:33:00;;;;;;;;;;;22.30;89.30;;;;;;5075331;28;19912;-66
2022/12/12 03:35:49;;;;;;;;;;;22.30;88.30;;;;;;5075838;28;19908;-66
2022/12/12 03:38:16;;;;;;;;;;;22.30;87.50;;;;;;5085341;28;19966;-66
2022/12/12 03:40:59;;;;;;;;;;;22.30;86.00;;;;;;5093481;28;20010;-66
2022/12/12 03:43:31;;;;;;;;;;;22.40;82.90;;;;;;5075215;28;20277;-66
2022/12/12 03:46:07;;;;;;;;;;;22.60;77.00;;;;;;5064731;28;19915;-66
2022/12/12 03:48:35;;;;;;;;;;;22.80;67.20;;;;;;5091007;28;19967;-66
2022/12/12 03:51:12;;;;;;;;;;;23.00;66.80;;;;;;5075484;28;19912;-66
2022/12/12 03:53:44;;;;;;;;;;;23.10;64.10;;;;;;5074966;28;19912;-67
2022/12/12 03:56:12;;;;;;;;;;;23.20;62.60;;;;;;5093324;28;19916;-67
2022/12/12 03:59:11;;;;;;;;;;;23.30;60.00;;;;;;5075082;28;20022;-66
2022/12/12 04:01:46;;;;;;;;;;;23.30;65.50;;;;;;5047833;28;19908;-66
2022/12/12 04:04:28;;;;;;;;;;;23.50;61.20;;;;;;5074851;28;19912;-67
2022/12/12 04:06:58;;;;;;;;;;;23.50;62.10;;;;;;5092889;28;19908;-66
2022/12/12 04:15:17;;;;;;;;;;;23.50;59.50;;;;;;5077378;28;19978;-66
2022/12/12 04:17:47;;;;;;;;;;;23.50;57.60;;;;;;5074361;28;20012;-66
2022/12/12 04:23:15;;;;;;;;;;;23.50;58.70;;;;;;5092525;28;20389;-65
2022/12/12 04:28:33;;;;;;;;;;;23.60;58.60;;;;;;5066631;28;19996;-66
2022/12/12 04:31:03;;;;;;;;;;;23.70;59.00;;;;;;5074210;28;19908;-65
2022/12/12 04:33:30;;;;;;;;;;;23.80;62.00;;;;;;5073925;28;19916;-66
2022/12/12 04:35:57;;;;;;;;;;;23.80;61.60;;;;;;5074305;28;19908;-66
2022/12/12 04:38:24;;;;;;;;;;;23.80;59.40;;;;;;5091941;28;20259;-65
2022/12/12 04:40:51;;;;;;;;;;;23.90;55.40;;;;;;5074243;28;19908;-65
2022/12/12 04:43:22;;;;;;;;;;;23.90;56.00;;;;;;5074364;28;20376;-66
2022/12/12 04:45:59;;;;;;;;;;;24.10;54.90;;;;;;5074377;28;19947;-67
2022/12/12 04:48:27;;;;;;;;;;;24.20;51.70;;;;;;5091861;28;19928;-66
2022/12/12 04:50:54;;;;;;;;;;;24.50;49.70;;;;;;5074230;28;20362;-66
2022/12/12 04:53:22;;;;;;;;;;;24.40;52.30;;;;;;5074078;28;19953;-67
2022/12/12 04:55:50;;;;;;;;;;;24.30;53.90;;;;;;5073622;28;19908;-66
2022/12/12 04:58:17;;;;;;;;;;;24.40;52.70;;;;;;5091788;28;19916;-66
2022/12/12 05:00:51;;;;;;;;;;;24.40;52.10;;;;;;5063584;28;20282;-66
2022/12/12 05:03:19;;;;;;;;;;;24.60;49.10;;;;;;5074099;28;19915;-66
2022/12/12 05:06:12;;;;;;;;;;;24.70;50.90;;;;;;5073980;28;19919;-66
2022/12/12 05:08:42;;;;;;;;;;;24.70;52.70;;;;;;5089252;28;19909;-66
2022/12/12 05:11:08;;;;;;;;;;;24.70;49.50;;;;;;5074086;28;20013;-66
2022/12/12 05:13:36;;;;;;;;;;;24.80;49.10;;;;;;5073985;28;20007;-66
2022/12/12 05:16:23;;;;;;;;;;;24.70;50.50;;;;;;5092018;28;19919;-66
2022/12/12 05:18:49;;;;;;;;;;;24.60;48.90;;;;;;5091650;28;19924;-66
2022/12/12 05:21:16;;;;;;;;;;;24.50;51.10;;;;;;5091753;28;19916;-66
2022/12/12 05:23:43;;;;;;;;;;;24.30;50.70;;;;;;5091782;28;19918;-66
2022/12/12 05:26:15;;;;;;;;;;;24.30;49.80;;;;;;5073572;28;19908;-66
2022/12/12 05:28:42;;;;;;;;;;;24.30;49.10;;;;;;5073946;28;19916;-67
2022/12/12 05:31:08;;;;;;;;;;;24.20;51.10;;;;;;5092049;28;20282;-66
2022/12/12 05:33:35;;;;;;;;;;;24.20;51.70;;;;;;5091603;28;19908;-66
2022/12/12 05:36:02;;;;;;;;;;;24.30;51.60;;;;;;5092121;28;19923;-66
2022/12/12 05:38:28;;;;;;;;;;;24.30;49.80;;;;;;5091918;28;20010;-66
2022/12/12 05:40:55;;;;;;;;;;;24.30;50.10;;;;;;5091786;28;19935;-66
2022/12/12 05:43:21;;;;;;;;;;;24.40;51.30;;;;;;5091507;28;19987;-66
2022/12/12 05:45:48;;;;;;;;;;;24.50;51.20;;;;;;5091596;28;19916;-66
2022/12/12 05:48:15;;;;;;;;;;;24.50;49.60;;;;;;5092082;28;19927;-66
2022/12/12 05:50:41;;;;;;;;;;;24.60;47.60;;;;;;5091802;28;19966;-66
2022/12/12 05:53:08;;;;;;;;;;;24.50;44.80;;;;;;5092081;28;19915;-66
2022/12/12 05:55:34;;;;;;;;;;;24.50;45.10;;;;;;5091547;28;20312;-66
2022/12/12 05:58:01;;;;;;;;;;;24.40;43.40;;;;;;5073850;28;19917;-66
2022/12/12 06:00:28;;;;;;;;;;;24.30;42.70;;;;;;5091599;28;20314;-66
2022/12/12 06:02:55;;;;;;;;;;;24.20;42.40;;;;;;5091684;28;19947;-66
2022/12/12 06:05:21;;;;;;;;;;;24.20;41.70;;;;;;5091632;28;19990;-66
2022/12/12 06:07:48;;;;;;;;;;;24.20;42.50;;;;;;5094432;28;19908;-68
2022/12/12 06:10:14;;;;;;;;;;;24.30;42.10;;;;;;5095034;28;19912;-66
2022/12/12 06:12:41;;;;;;;;;;;24.20;42.10;;;;;;5095543;28;19913;-66
2022/12/12 06:15:08;;;;;;;;;;;24.20;41.80;;;;;;5095166;28;19908;-66
2022/12/12 06:17:34;;;;;;;;;;;24.20;42.20;;;;;;5061317;28;19924;-66
2022/12/12 06:20:01;;;;;;;;;;;24.00;42.10;;;;;;5079155;28;19912;-66
2022/12/12 06:22:28;;;;;;;;;;;24.00;43.20;;;;;;5079857;28;20359;-66
2022/12/12 06:24:54;;;;;;;;;;;24.00;44.70;;;;;;5082152;28;19912;-66
2022/12/12 06:27:21;;;;;;;;;;;23.90;43.70;;;;;;5094883;28;19908;-65
2022/12/12 06:29:47;;;;;;;;;;;23.90;43.70;;;;;;5083997;28;19920;-65
2022/12/12 06:32:14;;;;;;;;;;;23.80;43.70;;;;;;5094046;28;20003;-66
2022/12/12 06:34:41;;;;;;;;;;;23.80;43.10;;;;;;5067986;28;19932;-66
2022/12/12 06:37:07;;;;;;;;;;;23.80;42.60;;;;;;5094900;28;19916;-65
2022/12/12 06:39:34;;;;;;;;;;;23.80;41.70;;;;;;5064862;28;19916;-65
2022/12/12 06:42:00;;;;;;;;;;;23.80;41.50;;;;;;5094410;28;19927;-66
2022/12/12 06:44:27;;;;;;;;;;;23.80;41.20;;;;;;5086153;28;20444;-66
2022/12/12 06:46:54;;;;;;;;;;;23.80;41.00;;;;;;5076242;28;19912;-66
2022/12/12 06:49:20;;;;;;;;;;;23.80;40.30;;;;;;5085214;28;20342;-66
2022/12/12 06:51:47;;;;;;;;;;;23.80;39.70;;;;;;5057909;28;19999;-66
2022/12/12 06:54:15;;;;;;;;;;;23.80;38.20;;;;;;5071471;28;19913;-66
2022/12/12 06:56:41;;;;;;;;;;;23.70;36.20;;;;;;5077332;28;20334;-65
2022/12/12 06:59:09;;;;;;;;;;;23.80;36.70;;;;;;5076464;28;20349;-65
2022/12/12 07:01:39;;;;;;;;;;;23.80;36.50;;;;;;5084301;28;20209;-65
2022/12/12 07:04:06;;;;;;;;;;;23.80;36.70;;;;;;5081743;28;19916;-65
2022/12/12 07:06:33;;;;;;;;;;;23.70;36.50;;;;;;5078842;28;19927;-65
2022/12/12 07:08:59;;;;;;;;;;;23.70;36.20;;;;;;5073564;28;19916;-66
2022/12/12 07:11:26;;;;;;;;;;;23.70;36.10;;;;;;5058476;28;20333;-66
2022/12/12 07:13:53;;;;;;;;;;;23.60;36.20;;;;;;5089985;28;19983;-66
2022/12/12 07:16:20;;;;;;;;;;;23.60;36.40;;;;;;5091133;28;19909;-66
2022/12/12 07:18:46;;;;;;;;;;;23.60;36.90;;;;;;5088746;28;19927;-65
2022/12/12 07:21:14;;;;;;;;;;;23.60;35.80;;;;;;5091047;28;19942;-66
2022/12/12 07:23:41;;;;;;;;;;;23.50;37.00;;;;;;5091305;28;19955;-66
2022/12/12 07:26:17;;;;;;;;;;;23.50;35.10;;;;;;5090864;28;19915;-66
2022/12/12 07:28:44;;;;;;;;;;;23.50;33.70;;;;;;5090469;28;19939;-66
2022/12/12 07:31:12;;;;;;;;;;;23.50;34.60;;;;;;5090646;28;19908;-66
2022/12/12 07:33:40;;;;;;;;;;;23.50;32.30;;;;;;5090909;28;19916;-66
2022/12/12 07:36:06;;;;;;;;;;;23.40;33.80;;;;;;5090860;28;19916;-66
2022/12/12 07:38:33;;;;;;;;;;;23.40;32.50;;;;;;5090352;28;19974;-66
2022/12/12 07:41:03;;;;;;;;;;;23.30;31.70;;;;;;5090553;28;20325;-66
2022/12/12 07:43:30;;;;;;;;;;;23.30;32.40;;;;;;5066366;28;19919;-66
2022/12/12 07:45:57;;;;;;;;;;;23.30;33.60;;;;;;5076034;28;19921;-66
2022/12/12 07:48:23;;;;;;;;;;;23.30;33.10;;;;;;5065696;28;19921;-65
2022/12/12 07:50:50;;;;;;;;;;;23.20;32.70;;;;;;5077798;28;19923;-66
2022/12/12 07:53:16;;;;;;;;;;;23.30;33.30;;;;;;5081829;28;19916;-66
2022/12/12 07:55:43;;;;;;;;;;;23.30;33.90;;;;;;5090452;28;19912;-67
2022/12/12 07:58:10;;;;;;;;;;;23.30;33.40;;;;;;5080942;28;19980;-66
2022/12/12 08:00:36;;;;;;;;;;;23.20;32.40;;;;;;5074596;28;19912;-66
2022/12/12 08:03:03;;;;;;;;;;;23.20;31.40;;;;;;5074059;28;19916;-66
2022/12/12 08:05:29;;;;;;;;;;;23.10;31.10;;;;;;5082464;28;19923;-65
2022/12/12 08:07:56;;;;;;;;;;;23.00;31.30;;;;;;5087498;28;20376;-66
2022/12/12 08:10:23;;;;;;;;;;;23.00;30.10;;;;;;5061601;28;19921;-66
2022/12/12 08:12:49;;;;;;;;;;;23.00;30.90;;;;;;5085476;28;19923;-66
2022/12/12 08:15:16;;;;;;;;;;;22.90;31.10;;;;;;5088734;28;19916;-68
2022/12/12 08:17:43;;;;;;;;;;;22.80;31.30;;;;;;5080140;28;19920;-68
2022/12/12 08:20:10;;;;;;;;;;;22.80;32.00;;;;;;5060218;28;19912;-68
2022/12/12 08:22:36;;;;;;;;;;;22.80;31.50;;;;;;5071734;28;20390;-67
2022/12/12 08:25:03;;;;;;;;;;;22.70;32.10;;;;;;5064599;28;19916;-67
2022/12/12 08:27:30;;;;;;;;;;;22.70;33.40;;;;;;5071810;28;19990;-67
2022/12/12 08:29:56;;;;;;;;;;;22.70;31.60;;;;;;5072777;28;19927;-66
2022/12/12 08:32:23;;;;;;;;;;;22.70;32.00;;;;;;5065815;28;19920;-67
2022/12/12 08:34:50;;;;;;;;;;;22.70;32.60;;;;;;5076192;28;19923;-65
2022/12/12 08:37:16;;;;;;;;;;;22.70;32.20;;;;;;5089993;28;20012;-65
2022/12/12 08:39:43;;;;;;;;;;;22.60;33.00;;;;;;5085037;28;19912;-65
2022/12/12 08:42:11;;;;;;;;;;;22.60;32.30;;;;;;5073259;28;19916;-66
2022/12/12 08:44:37;;;;;;;;;;;22.50;32.90;;;;;;5071843;28;20418;-66
2022/12/12 08:47:04;;;;;;;;;;;22.40;31.90;;;;;;5081783;28;19931;-66
2022/12/12 08:49:30;;;;;;;;;;;22.40;32.70;;;;;;5061232;28;20003;-66
2022/12/12 08:51:57;;;;;;;;;;;22.40;32.80;;;;;;5082684;28;19999;-66
2022/12/12 08:54:24;;;;;;;;;;;22.30;32.70;;;;;;5069924;28;19963;-66
2022/12/12 08:56:51;;;;;;;;;;;22.30;34.40;;;;;;5080769;28;19924;-64
2022/12/12 08:59:17;;;;;;;;;;;22.30;33.40;;;;;;5069472;28;19920;-65
2022/12/12 09:01:44;;;;;;;;;;;22.30;33.90;;;;;;5069248;28;20338;-66
2022/12/12 09:04:10;;;;;;;;;;;22.30;34.40;;;;;;5060240;28;20331;-64
2022/12/12 09:06:37;;;;;;;;;;;22.20;33.40;;;;;;5062573;28;20004;-65
2022/12/12 09:09:03;;;;;;;;;;;22.20;33.90;;;;;;5069342;28;19909;-66
2022/12/12 09:11:30;;;;;;;;;;;22.20;33.20;;;;;;5069652;28;19919;-66
2022/12/12 09:13:57;;;;;;;;;;;22.20;34.30;;;;;;5069291;28;19926;-66
2022/12/12 09:16:25;;;;;;;;;;;22.10;32.80;;;;;;5075382;28;19908;-65
2022/12/12 09:18:52;;;;;;;;;;;22.00;32.10;;;;;;5077563;28;19944;-65
2022/12/12 09:21:19;;;;;;;;;;;22.00;33.90;;;;;;5076086;28;19913;-65
2022/12/12 09:23:45;;;;;;;;;;;22.10;34.20;;;;;;5058631;28;19963;-65
2022/12/12 09:26:12;;;;;;;;;;;22.00;34.50;;;;;;5063757;28;19968;-66
2022/12/12 09:28:39;;;;;;;;;;;22.00;34.70;;;;;;5059685;28;19999;-66
2022/12/12 09:31:06;;;;;;;;;;;21.90;34.30;;;;;;5057650;28;19913;-65
2022/12/12 09:33:32;;;;;;;;;;;21.80;34.20;;;;;;5056910;28;19927;-66
2022/12/12 09:35:59;;;;;;;;;;;21.80;34.30;;;;;;5059780;28;20326;-66
2022/12/12 09:38:26;;;;;;;;;;;21.80;34.50;;;;;;5058465;28;19947;-65
2022/12/12 09:40:53;;;;;;;;;;;21.80;35.20;;;;;;5060820;28;20333;-65
2022/12/12 09:43:20;;;;;;;;;;;21.70;35.50;;;;;;5063231;28;20011;-65
2022/12/12 09:45:47;;;;;;;;;;;21.70;33.90;;;;;;5061874;28;19932;-65
2022/12/12 09:48:39;;;;;;;;;;;21.70;33.70;;;;;;4930398;28;3783239;-66
2022/12/12 09:51:06;;;;;;;;;;;21.70;35.70;;;;;;5062548;28;20012;-66
2022/12/12 09:53:33;;;;;;;;;;;21.60;34.00;;;;;;5045859;28;20542;-66
2022/12/12 09:56:11;;;;;;;;;;;21.70;35.10;;;;;;5048084;28;20022;-65
2022/12/12 09:58:46;;;;;;;;;;;21.60;36.50;;;;;;5060012;28;20391;-66
2022/12/12 10:01:19;;;;;;;;;;;21.60;36.30;;;;;;5040531;28;20379;-66
2022/12/12 10:04:03;;;;;;;;;;;21.60;36.20;;;;;;5058995;28;19924;-66
2022/12/12 10:06:33;;;;;;;;;;;21.50;38.50;;;;;;5064520;28;19973;-66
2022/12/12 10:09:09;;;;;;;;;;;21.50;36.40;;;;;;5062824;28;20011;-66
2022/12/12 10:11:54;;;;;;;;;;;21.50;37.20;;;;;;5062282;28;20568;-67
2022/12/12 10:14:40;;;;;;;;;;;21.50;36.50;;;;;;5049766;28;20030;-67
2022/12/12 10:17:15;;;;;;;;;;;21.40;36.20;;;;;;5062760;28;20011;-67
2022/12/12 10:19:46;;;;;;;;;;;21.40;35.60;;;;;;5044600;28;19924;-67
2022/12/12 10:22:18;;;;;;;;;;;21.40;36.80;;;;;;5062650;28;19912;-67
2022/12/12 10:24:51;;;;;;;;;;;21.30;37.80;;;;;;5043781;28;21007;-67
2022/12/12 10:27:19;;;;;;;;;;;21.30;35.70;;;;;;5049225;28;19916;-66
2022/12/12 10:29:46;;;;;;;;;;;21.20;35.50;;;;;;5062688;28;19920;-65
2022/12/12 10:32:31;;;;;;;;;;;21.20;36.30;;;;;;5061507;28;19909;-66
2022/12/12 10:35:02;;;;;;;;;;;21.20;36.30;;;;;;5049062;28;20409;-66
2022/12/12 10:37:41;;;;;;;;;;;21.20;36.60;;;;;;5064109;28;20026;-67
2022/12/12 10:40:14;;;;;;;;;;;21.10;36.30;;;;;;5045310;28;19971;-66
2022/12/12 10:42:52;;;;;;;;;;;21.20;36.60;;;;;;5062682;28;19956;-66
2022/12/12 10:45:37;;;;;;;;;;;21.10;35.80;;;;;;5064056;28;19908;-67
2022/12/12 10:48:04;;;;;;;;;;;21.00;35.30;;;;;;5064519;28;19935;-67
2022/12/12 10:50:42;;;;;;;;;;;21.10;36.80;;;;;;5061939;28;19947;-68
2022/12/12 10:53:09;;;;;;;;;;;21.00;37.60;;;;;;5058145;28;19913;-67
2022/12/12 10:55:38;;;;;;;;;;;21.00;37.60;;;;;;5062043;28;19921;-67
2022/12/12 10:58:05;;;;;;;;;;;21.00;37.40;;;;;;5063811;28;19935;-66
2022/12/12 11:00:33;;;;;;;;;;;21.00;37.30;;;;;;5061930;28;20623;-65
2022/12/12 11:03:02;;;;;;;;;;;20.90;36.70;;;;;;5061635;28;19927;-65
2022/12/12 11:05:29;;;;;;;;;;;21.00;39.10;;;;;;5041927;28;19920;-67
2022/12/12 11:08:02;;;;;;;;;;;20.90;38.80;;;;;;5061491;28;20290;-65
2022/12/12 11:10:32;;;;;;;;;;;20.80;38.50;;;;;;5060500;28;19952;-66
2022/12/12 11:13:01;;;;;;;;;;;20.80;38.70;;;;;;5060735;28;19920;-65
2022/12/12 11:15:38;;;;;;;;;;;20.80;40.10;;;;;;5061489;28;19920;-66
2022/12/12 11:18:05;;;;;;;;;;;20.70;38.80;;;;;;5068163;28;19931;-66
2022/12/12 11:20:32;;;;;;;;;;;20.70;37.80;;;;;;5061939;28;19920;-66
2022/12/12 11:22:58;;;;;;;;;;;20.60;36.60;;;;;;5066036;28;19920;-65
2022/12/12 11:25:27;;;;;;;;;;;20.60;37.70;;;;;;5052302;28;19912;-66
2022/12/12 12:11:56;;;;;;;;;;;20.30;36.80;;;;;;5086086;28;19926;-65
2022/12/12 12:14:30;;;;;;;;;;;20.30;37.10;;;;;;5092939;28;20292;-65
2022/12/12 12:16:59;;;;;;;;;;;20.30;37.30;;;;;;5097909;28;19930;-65
2022/12/12 12:19:26;;;;;;;;;;;20.20;36.70;;;;;;5092441;28;19912;-64
2022/12/12 12:22:10;;;;;;;;;;;20.20;37.50;;;;;;5091884;28;19923;-66
2022/12/12 12:24:40;;;;;;;;;;;20.20;38.80;;;;;;5092365;28;19912;-66
2022/12/12 12:27:19;;;;;;;;;;;20.20;38.00;;;;;;5092720;28;19916;-65
2022/12/12 12:30:04;;;;;;;;;;;20.20;38.50;;;;;;5065059;28;19908;-66
2022/12/12 12:32:40;;;;;;;;;;;20.20;38.30;;;;;;5091531;28;19912;-66
2022/12/12 12:35:11;;;;;;;;;;;20.20;38.50;;;;;;5100707;28;19912;-65
2022/12/12 12:37:41;;;;;;;;;;;20.20;39.50;;;;;;5091971;28;19916;-65
2022/12/12 12:40:13;;;;;;;;;;;20.10;39.00;;;;;;5092016;28;19912;-66
2022/12/12 12:42:43;;;;;;;;;;;20.10;38.70;;;;;;5089724;28;19916;-65
2022/12/12 12:45:28;;;;;;;;;;;20.00;39.10;;;;;;5091945;28;19912;-65
2022/12/12 12:48:07;;;;;;;;;;;20.00;39.80;;;;;;5089777;28;20003;-66
2022/12/12 12:50:34;;;;;;;;;;;20.00;38.50;;;;;;5103388;28;20386;-65
2022/12/12 12:53:07;;;;;;;;;;;19.90;39.20;;;;;;5069762;28;19913;-65
2022/12/12 12:55:34;;;;;;;;;;;19.90;40.10;;;;;;5089665;28;19916;-66
2022/12/12 12:58:01;;;;;;;;;;;19.80;40.40;;;;;;5105120;28;20396;-66
2022/12/12 13:00:28;;;;;;;;;;;19.80;39.70;;;;;;5105924;28;19926;-65
2022/12/12 13:03:02;;;;;;;;;;;19.80;39.70;;;;;;5073703;28;19930;-66
2022/12/12 13:05:35;;;;;;;;;;;19.80;40.20;;;;;;5092217;28;19913;-65
2022/12/12 13:08:05;;;;;;;;;;;19.80;40.40;;;;;;5073908;28;19916;-65
2022/12/12 13:10:32;;;;;;;;;;;19.80;39.60;;;;;;5091638;28;19920;-65
2022/12/12 13:13:00;;;;;;;;;;;19.80;40.00;;;;;;5107498;28;20338;-66
2022/12/12 13:15:32;;;;;;;;;;;19.70;40.80;;;;;;5075104;28;19908;-66
2022/12/12 13:18:03;;;;;;;;;;;19.70;41.70;;;;;;5077611;28;20018;-66
2022/12/12 13:20:32;;;;;;;;;;;19.60;41.50;;;;;;5074956;28;19962;-66
2022/12/12 13:23:05;;;;;;;;;;;19.60;41.20;;;;;;5077702;28;20323;-65
2022/12/12 13:25:31;;;;;;;;;;;19.60;40.40;;;;;;5095892;28;19919;-65
2022/12/12 13:27:58;;;;;;;;;;;19.50;40.80;;;;;;5095588;28;19912;-66
2022/12/12 13:30:38;;;;;;;;;;;19.50;40.20;;;;;;5094210;28;19927;-65
2022/12/12 13:33:13;;;;;;;;;;;19.50;39.70;;;;;;5093874;28;19908;-65
2022/12/12 13:35:43;;;;;;;;;;;19.40;40.30;;;;;;5094959;28;19981;-65
2022/12/12 13:38:21;;;;;;;;;;;19.40;41.90;;;;;;5093580;28;19927;-65
2022/12/12 13:41:08;;;;;;;;;;;19.40;41.50;;;;;;5076691;28;19912;-65
2022/12/12 13:43:37;;;;;;;;;;;19.30;41.80;;;;;;5093554;28;20482;-65
2022/12/12 13:46:23;;;;;;;;;;;19.30;41.80;;;;;;5094403;28;19912;-65
2022/12/12 13:48:52;;;;;;;;;;;19.30;41.20;;;;;;5088970;28;20615;-65
2022/12/12 13:51:32;;;;;;;;;;;19.30;41.40;;;;;;5091102;28;19913;-65
2022/12/12 13:54:08;;;;;;;;;;;19.30;41.10;;;;;;5088082;28;19912;-65
2022/12/12 13:56:44;;;;;;;;;;;19.20;41.50;;;;;;5094961;28;19912;-65
2022/12/12 13:59:24;;;;;;;;;;;19.20;41.40;;;;;;5092545;28;19927;-66
2022/12/12 14:01:55;;;;;;;;;;;19.20;43.20;;;;;;5088876;28;19913;-66
2022/12/12 14:04:31;;;;;;;;;;;19.20;43.30;;;;;;5060548;28;20286;-66
2022/12/12 14:06:58;;;;;;;;;;;19.20;43.10;;;;;;5092120;28;19919;-66
2022/12/12 14:09:25;;;;;;;;;;;19.10;43.30;;;;;;5091413;28;19924;-66
2022/12/12 14:11:51;;;;;;;;;;;19.00;43.50;;;;;;5077808;28;19938;-66
2022/12/12 14:14:19;;;;;;;;;;;19.00;42.80;;;;;;5095002;28;20267;-66
2022/12/12 14:16:53;;;;;;;;;;;18.90;43.50;;;;;;5076963;28;19909;-66
2022/12/12 14:19:24;;;;;;;;;;;18.90;43.30;;;;;;5074852;28;19912;-66
2022/12/12 14:21:51;;;;;;;;;;;18.90;43.90;;;;;;5076753;28;19915;-66
2022/12/12 14:24:32;;;;;;;;;;;18.80;43.20;;;;;;5094898;28;20278;-66
2022/12/12 14:26:59;;;;;;;;;;;18.80;43.20;;;;;;5093038;28;19961;-66
2022/12/12 14:29:27;;;;;;;;;;;18.80;42.90;;;;;;5094443;28;20234;-66
2022/12/12 14:32:12;;;;;;;;;;;18.80;42.80;;;;;;5092741;28;19912;-66
2022/12/12 14:34:38;;;;;;;;;;;18.80;42.70;;;;;;5092590;28;20426;-66
2022/12/12 14:37:20;;;;;;;;;;;18.80;42.70;;;;;;5093133;28;19949;-66
2022/12/12 14:39:47;;;;;;;;;;;18.80;42.40;;;;;;5093672;28;19916;-66
2022/12/12 14:42:29;;;;;;;;;;;18.70;43.60;;;;;;5093671;28;19908;-66
2022/12/12 14:44:55;;;;;;;;;;;18.70;44.00;;;;;;5093203;28;20006;-66
2022/12/12 14:47:22;;;;;;;;;;;18.70;44.30;;;;;;5083418;28;19962;-66
2022/12/12 14:49:55;;;;;;;;;;;18.60;44.10;;;;;;5090912;28;19912;-66
2022/12/12 14:52:22;;;;;;;;;;;18.60;45.20;;;;;;5075633;28;20262;-66
2022/12/12 14:54:49;;;;;;;;;;;18.50;45.50;;;;;;5092744;28;19931;-66
2022/12/12 14:57:18;;;;;;;;;;;18.50;46.30;;;;;;5075704;28;19920;-66
2022/12/12 14:59:45;;;;;;;;;;;18.50;45.50;;;;;;5091133;28;19919;-66
2022/12/12 15:02:33;;;;;;;;;;;18.50;45.60;;;;;;5082662;28;19965;-66
2022/12/12 15:05:00;;;;;;;;;;;18.50;45.80;;;;;;5075658;28;20266;-66
2022/12/12 15:07:30;;;;;;;;;;;18.40;46.10;;;;;;5058841;28;20390;-66
2022/12/12 15:09:57;;;;;;;;;;;18.40;46.50;;;;;;5093701;28;20320;-66
2022/12/12 15:12:31;;;;;;;;;;;18.30;46.10;;;;;;5094050;28;19908;-66
2022/12/12 15:14:58;;;;;;;;;;;18.30;47.20;;;;;;5093917;28;19915;-66
2022/12/12 15:17:26;;;;;;;;;;;18.40;47.20;;;;;;5093957;28;19916;-66
2022/12/12 15:19:55;;;;;;;;;;;18.30;47.00;;;;;;5066067;28;19912;-66
2022/12/12 15:22:25;;;;;;;;;;;18.30;46.70;;;;;;5093924;28;19908;-66
2022/12/12 15:24:55;;;;;;;;;;;18.20;47.30;;;;;;5075494;28;20285;-66
2022/12/12 15:27:21;;;;;;;;;;;18.20;47.20;;;;;;5075624;28;19961;-66
2022/12/12 15:29:48;;;;;;;;;;;18.20;47.30;;;;;;5093334;28;19911;-65
2022/12/12 15:32:16;;;;;;;;;;;18.10;46.70;;;;;;5093342;28;20278;-65